KFAF/FAF METAR and TAF weather

Enter ICAO airport designator
Station Type Date Time Source
KFAF METAR 2019/10/15 17:56 UTC NOAA

KFAF 151756Z 06003KT 10SM FEW100 23/07 A3009 RMK AO2A SLP193 T02330070 10233 20142 58013 $


Station Type Date Time Source
KFAF Decoded METAR 2019/10/15 17:56 UTC NOAA

Fort Eustis / Felker, VA, United States (KFAF) 37-08N 076-37W
Oct 15, 2019 - 01:56 PM EDT / 2019.10.15 1756 UTC
Wind: from the ENE (060 degrees) at 3 MPH (3 KT):0
Visibility: 10 mile(s):0
Sky conditions: mostly clear
Temperature: 73.9 F (23.3 C)
Dew Point: 44.6 F (7.0 C)
Relative Humidity: 35%
Pressure (altimeter): 30.09 in. Hg (1018 hPa)
Pressure tendency: 0.04 inches (1.3 hPa) lower than three hours ago
ob: KFAF 151756Z 06003KT 10SM FEW100 23/07 A3009 RMK AO2A SLP193 T02330070 10233 20142 58013
cycle: 18

Station Type Date Time Source
KFAF TAF 2019/10/15 18:57 UTC NOAA

TAF TAF KFAF 151800Z 1518/1624 09009KT 9999 SCT020 QNH2986INS
BECMG 1612/1613 14006KT 8000 -SHRA BKN010 QNH2976INS
BECMG 1615/1616 18009KT 8000 -SHRA OVC007 QNH2954INS
TEMPO 1616/1620 OVC006
BECMG 1622/1623 28012G18KT 9999 NSW OVC015 QNH2955INS TX24/1518Z TN17/1607Z LAST NO
AMDS AFT 1603 NEXT 1610

Example: see airport list